IGO1996 VILH-VIDP
Flight info
| Callsign | IGO1996 |
|---|---|
| Flight time | 1h 7m |
| Altitude | 34000 |
| Route | 340712N0772941E 340830N0772736E 341105N0772348E 341135N0771700E 341224N0771330E DCT LELAX W39 SP SP6A |
| Aircraft | A320/M-SDE3FGHIRWY/LB1 |
Departure
| Time | 2026-04-12 05:34 |
|---|---|
| Airport | Leh Kushok Bakula Rimpochee Airport (VILH) |
Arrival
| Time | 2026-04-12 06:41 |
|---|---|
| Airport | Indira Gandhi International Airport (VIDP) |
| Time | Latitude | Longitude | Altitude | Speed | Heading |
|---|---|---|---|---|---|
| 2026-04-12 05:24 | 34.14239 | 77.55431 | 10882 ft | 0 kts | 66° |
| 2026-04-12 05:30 | 34.14241 | 77.55435 | 10883 ft | 4 kts | 66° |
| 2026-04-12 05:30 | 34.14237 | 77.55453 | 10881 ft | 0 kts | 140° |
| 2026-04-12 05:30 | 34.14202 | 77.55438 | 10875 ft | 13 kts | 194° |
| 2026-04-12 05:30 | 34.14073 | 77.55499 | 10870 ft | 21 kts | 154° |
| 2026-04-12 05:31 | 34.14055 | 77.55545 | 10851 ft | 13 kts | 87° |
| 2026-04-12 05:31 | 34.14068 | 77.55723 | 10849 ft | 18 kts | 83° |
| 2026-04-12 05:31 | 34.14056 | 77.55832 | 10858 ft | 8 kts | 100° |
| 2026-04-12 05:31 | 34.14053 | 77.55855 | 10871 ft | 0 kts | 99° |
| 2026-04-12 05:32 | 34.14051 | 77.55873 | 10867 ft | 5 kts | 97° |
| 2026-04-12 05:32 | 34.14045 | 77.55934 | 10868 ft | 9 kts | 93° |
| 2026-04-12 05:32 | 34.14052 | 77.56013 | 10883 ft | 10 kts | 88° |
| 2026-04-12 05:32 | 34.14018 | 77.56050 | 10888 ft | 8 kts | 211° |
| 2026-04-12 05:33 | 34.14004 | 77.56010 | 10883 ft | 0 kts | 247° |
| 2026-04-12 05:33 | 34.13988 | 77.55958 | 10875 ft | 14 kts | 252° |
| 2026-04-12 05:33 | 34.13927 | 77.55745 | 10842 ft | 53 kts | 250° |
| 2026-04-12 05:33 | 34.13715 | 77.55010 | 10758 ft | 130 kts | 250° |
| 2026-04-12 05:34 | 34.13344 | 77.53752 | 10770 ft | 176 kts | 249° |
| 2026-04-12 05:34 | 34.12921 | 77.52320 | 11302 ft | 186 kts | 251° |
| 2026-04-12 05:34 | 34.12521 | 77.50793 | 11965 ft | 196 kts | 253° |
| 2026-04-12 05:34 | 34.12230 | 77.49149 | 12606 ft | 205 kts | 267° |
| 2026-04-12 05:35 | 34.12389 | 77.47377 | 12825 ft | 227 kts | 287° |
| 2026-04-12 05:35 | 34.13137 | 77.45641 | 13267 ft | 233 kts | 307° |
| 2026-04-12 05:35 | 34.14088 | 77.44164 | 14186 ft | 220 kts | 308° |
| 2026-04-12 05:35 | 34.15063 | 77.42636 | 14375 ft | 240 kts | 305° |
| 2026-04-12 05:36 | 34.16166 | 77.41010 | 14574 ft | 261 kts | 315° |
| 2026-04-12 05:36 | 34.17531 | 77.39465 | 14913 ft | 277 kts | 314° |
| 2026-04-12 05:36 | 34.18601 | 77.37503 | 15328 ft | 287 kts | 286° |
| 2026-04-12 05:36 | 34.18880 | 77.35077 | 15744 ft | 300 kts | 272° |
| 2026-04-12 05:37 | 34.19013 | 77.32488 | 16102 ft | 316 kts | 273° |
| 2026-04-12 05:37 | 34.19181 | 77.29878 | 17133 ft | 302 kts | 274° |
| 2026-04-12 05:37 | 34.19479 | 77.27448 | 18390 ft | 286 kts | 282° |
| 2026-04-12 05:37 | 34.19673 | 77.25093 | 19129 ft | 280 kts | 259° |
| 2026-04-12 05:38 | 34.18891 | 77.22984 | 19717 ft | 279 kts | 227° |
| 2026-04-12 05:38 | 34.17282 | 77.21712 | 20194 ft | 283 kts | 195° |
| 2026-04-12 05:38 | 34.15315 | 77.21678 | 20665 ft | 290 kts | 167° |
| 2026-04-12 05:38 | 34.13380 | 77.22495 | 21065 ft | 299 kts | 160° |
| 2026-04-12 05:39 | 34.11431 | 77.23447 | 21552 ft | 304 kts | 160° |
| 2026-04-12 05:39 | 34.09454 | 77.24411 | 22085 ft | 309 kts | 160° |
| 2026-04-12 05:39 | 34.07449 | 77.25386 | 22614 ft | 313 kts | 161° |
| 2026-04-12 05:39 | 34.05374 | 77.26207 | 23124 ft | 315 kts | 169° |
| 2026-04-12 05:40 | 34.03220 | 77.26776 | 23540 ft | 322 kts | 173° |
| 2026-04-12 05:40 | 34.00960 | 77.27240 | 23725 ft | 337 kts | 174° |
| 2026-04-12 05:40 | 33.98597 | 77.27683 | 23834 ft | 351 kts | 174° |
| 2026-04-12 05:40 | 33.96130 | 77.28152 | 23941 ft | 366 kts | 174° |
| 2026-04-12 05:41 | 33.93566 | 77.28669 | 24065 ft | 380 kts | 173° |
| 2026-04-12 05:41 | 33.90914 | 77.29240 | 24180 ft | 394 kts | 173° |
| 2026-04-12 05:41 | 33.88164 | 77.29858 | 24299 ft | 410 kts | 172° |
| 2026-04-12 05:41 | 33.85320 | 77.30512 | 24505 ft | 420 kts | 172° |
| 2026-04-12 05:42 | 33.82435 | 77.31182 | 24881 ft | 425 kts | 173° |
| 2026-04-12 05:42 | 33.79486 | 77.31863 | 25021 ft | 437 kts | 173° |
| 2026-04-12 05:42 | 33.76503 | 77.32550 | 25665 ft | 430 kts | 173° |
| 2026-04-12 05:43 | 33.70891 | 77.33856 | 28101 ft | 391 kts | 175° |
| 2026-04-12 05:43 | 33.68288 | 77.34460 | 29305 ft | 373 kts | 175° |
| 2026-04-12 05:43 | 33.65746 | 77.35036 | 29846 ft | 374 kts | 176° |
| 2026-04-12 05:43 | 33.63148 | 77.35603 | 30027 ft | 384 kts | 176° |
| 2026-04-12 05:44 | 33.60497 | 77.36178 | 30281 ft | 389 kts | 176° |
| 2026-04-12 05:44 | 33.57825 | 77.36767 | 30511 ft | 392 kts | 177° |
| 2026-04-12 05:44 | 33.55126 | 77.37371 | 30752 ft | 398 kts | 177° |
| 2026-04-12 05:44 | 33.52379 | 77.37989 | 30983 ft | 405 kts | 176° |
| 2026-04-12 05:45 | 33.49601 | 77.38619 | 31235 ft | 407 kts | 177° |
| 2026-04-12 05:45 | 33.46828 | 77.39254 | 31703 ft | 405 kts | 178° |
| 2026-04-12 05:45 | 33.44073 | 77.39885 | 32163 ft | 401 kts | 179° |
| 2026-04-12 05:45 | 33.41432 | 77.40504 | 33256 ft | 377 kts | 180° |
| 2026-04-12 05:46 | 33.38880 | 77.41096 | 33785 ft | 373 kts | 181° |
| 2026-04-12 05:46 | 33.36319 | 77.41667 | 34030 ft | 376 kts | 182° |
| 2026-04-12 05:46 | 33.31050 | 77.42797 | 34100 ft | 392 kts | 182° |
| 2026-04-12 05:47 | 33.25578 | 77.43982 | 34104 ft | 411 kts | 181° |
| 2026-04-12 05:47 | 33.19814 | 77.45260 | 34105 ft | 433 kts | 180° |
| 2026-04-12 05:48 | 33.13759 | 77.46632 | 34105 ft | 451 kts | 180° |
| 2026-04-12 05:48 | 33.07473 | 77.48051 | 34107 ft | 468 kts | 180° |
| 2026-04-12 05:49 | 33.00975 | 77.49499 | 34122 ft | 481 kts | 180° |
| 2026-04-12 05:49 | 32.94373 | 77.50981 | 34130 ft | 483 kts | 179° |
| 2026-04-12 05:50 | 32.87759 | 77.52464 | 34136 ft | 483 kts | 180° |
| 2026-04-12 05:50 | 32.81101 | 77.53940 | 34143 ft | 484 kts | 180° |
| 2026-04-12 05:51 | 32.74479 | 77.55414 | 34158 ft | 484 kts | 180° |
| 2026-04-12 05:51 | 32.67899 | 77.56873 | 34157 ft | 484 kts | 180° |
| 2026-04-12 05:52 | 32.61222 | 77.58339 | 34160 ft | 485 kts | 180° |
| 2026-04-12 05:52 | 32.54583 | 77.59789 | 34165 ft | 485 kts | 180° |
| 2026-04-12 05:53 | 32.47947 | 77.61248 | 34165 ft | 486 kts | 180° |
| 2026-04-12 05:53 | 32.42416 | 77.62466 | 34170 ft | 487 kts | 180° |
| 2026-04-12 05:54 | 32.39100 | 77.62987 | 34161 ft | 474 kts | 189° |
| 2026-04-12 05:54 | 32.35856 | 77.62941 | 34171 ft | 462 kts | 197° |
| 2026-04-12 05:54 | 32.29449 | 77.62386 | 34167 ft | 461 kts | 196° |
| 2026-04-12 05:55 | 32.23047 | 77.61844 | 34167 ft | 462 kts | 197° |
| 2026-04-12 05:55 | 32.16664 | 77.61309 | 34165 ft | 460 kts | 197° |
| 2026-04-12 05:56 | 32.10293 | 77.60778 | 34154 ft | 460 kts | 197° |
| 2026-04-12 05:56 | 32.07122 | 77.60517 | 34286 ft | 450 kts | 197° |
| 2026-04-12 05:56 | 32.04094 | 77.60299 | 34812 ft | 423 kts | 197° |
| 2026-04-12 05:57 | 32.01239 | 77.60107 | 35051 ft | 400 kts | 198° |
| 2026-04-12 05:57 | 31.98483 | 77.59896 | 35121 ft | 396 kts | 199° |
| 2026-04-12 05:57 | 31.92993 | 77.59391 | 35132 ft | 397 kts | 199° |
| 2026-04-12 05:58 | 31.87629 | 77.58903 | 35129 ft | 396 kts | 199° |
| 2026-04-12 05:58 | 31.82128 | 77.58435 | 35108 ft | 397 kts | 199° |
| 2026-04-12 05:59 | 31.76625 | 77.57984 | 35093 ft | 397 kts | 198° |
| 2026-04-12 05:59 | 31.71106 | 77.57534 | 35076 ft | 398 kts | 198° |
| 2026-04-12 06:00 | 31.65581 | 77.57082 | 35065 ft | 398 kts | 198° |
| 2026-04-12 06:00 | 31.60069 | 77.56626 | 35051 ft | 397 kts | 199° |
| 2026-04-12 06:01 | 31.54543 | 77.56162 | 35033 ft | 399 kts | 198° |
| 2026-04-12 06:01 | 31.48998 | 77.55711 | 35016 ft | 398 kts | 199° |
| 2026-04-12 06:02 | 31.43493 | 77.55264 | 35013 ft | 397 kts | 199° |
| 2026-04-12 06:02 | 31.38006 | 77.54819 | 35011 ft | 395 kts | 199° |
| 2026-04-12 06:03 | 31.32487 | 77.54358 | 34992 ft | 398 kts | 199° |
| 2026-04-12 06:03 | 31.26970 | 77.53908 | 34982 ft | 398 kts | 199° |
| 2026-04-12 06:04 | 31.21455 | 77.53458 | 34980 ft | 396 kts | 199° |
| 2026-04-12 06:04 | 31.15927 | 77.53007 | 34973 ft | 399 kts | 199° |
| 2026-04-12 06:05 | 31.10396 | 77.52543 | 34969 ft | 398 kts | 199° |
| 2026-04-12 06:05 | 31.04873 | 77.52061 | 34962 ft | 398 kts | 199° |
| 2026-04-12 06:06 | 30.99347 | 77.51583 | 34959 ft | 399 kts | 199° |
| 2026-04-12 06:06 | 30.93822 | 77.51106 | 34950 ft | 398 kts | 200° |
| 2026-04-12 06:07 | 30.88297 | 77.50642 | 34954 ft | 399 kts | 199° |
| 2026-04-12 06:07 | 30.82762 | 77.50171 | 34946 ft | 399 kts | 199° |
| 2026-04-12 06:08 | 30.77227 | 77.49696 | 34933 ft | 399 kts | 199° |
| 2026-04-12 06:08 | 30.71693 | 77.49223 | 34921 ft | 399 kts | 199° |
| 2026-04-12 06:09 | 30.66151 | 77.48759 | 34912 ft | 399 kts | 199° |
| 2026-04-12 06:09 | 30.60595 | 77.48296 | 34902 ft | 400 kts | 199° |
| 2026-04-12 06:10 | 30.55031 | 77.47825 | 34893 ft | 401 kts | 199° |
| 2026-04-12 06:10 | 30.49459 | 77.47355 | 34889 ft | 402 kts | 199° |
| 2026-04-12 06:11 | 30.43874 | 77.46875 | 34882 ft | 403 kts | 199° |
| 2026-04-12 06:11 | 30.38275 | 77.46401 | 34879 ft | 404 kts | 199° |
| 2026-04-12 06:12 | 30.32667 | 77.45936 | 34874 ft | 404 kts | 199° |
| 2026-04-12 06:12 | 30.27022 | 77.45458 | 34870 ft | 404 kts | 199° |
| 2026-04-12 06:13 | 30.21414 | 77.44982 | 34865 ft | 405 kts | 199° |
| 2026-04-12 06:13 | 30.15795 | 77.44518 | 34865 ft | 405 kts | 198° |
| 2026-04-12 06:14 | 30.10171 | 77.44059 | 34867 ft | 405 kts | 198° |
| 2026-04-12 06:14 | 30.04547 | 77.43585 | 34866 ft | 405 kts | 199° |
| 2026-04-12 06:15 | 29.99124 | 77.42567 | 34866 ft | 382 kts | 212° |
| 2026-04-12 06:15 | 29.96683 | 77.41488 | 34866 ft | 370 kts | 219° |
| 2026-04-12 06:15 | 29.94349 | 77.40246 | 34870 ft | 370 kts | 219° |
| 2026-04-12 06:16 | 29.89669 | 77.37774 | 34867 ft | 371 kts | 219° |
| 2026-04-12 06:16 | 29.84969 | 77.35309 | 34869 ft | 371 kts | 218° |
| 2026-04-12 06:17 | 29.80268 | 77.32851 | 34872 ft | 372 kts | 218° |
| 2026-04-12 06:17 | 29.75553 | 77.30391 | 34874 ft | 372 kts | 218° |
| 2026-04-12 06:18 | 29.70837 | 77.27929 | 34874 ft | 372 kts | 218° |
| 2026-04-12 06:18 | 29.66124 | 77.25463 | 34875 ft | 372 kts | 218° |
| 2026-04-12 06:19 | 29.61403 | 77.23001 | 34878 ft | 373 kts | 218° |
| 2026-04-12 06:19 | 29.56683 | 77.20543 | 34878 ft | 372 kts | 218° |
| 2026-04-12 06:20 | 29.51963 | 77.18088 | 34876 ft | 373 kts | 217° |
| 2026-04-12 06:20 | 29.47237 | 77.15631 | 34877 ft | 373 kts | 217° |
| 2026-04-12 06:21 | 29.42510 | 77.13180 | 34876 ft | 373 kts | 217° |
| 2026-04-12 06:21 | 29.37786 | 77.10733 | 34880 ft | 371 kts | 217° |
| 2026-04-12 06:22 | 29.33083 | 77.08294 | 34880 ft | 371 kts | 217° |
| 2026-04-12 06:22 | 29.28377 | 77.05855 | 34809 ft | 372 kts | 217° |
| 2026-04-12 06:23 | 29.25984 | 77.04604 | 33991 ft | 385 kts | 217° |
| 2026-04-12 06:23 | 29.24349 | 77.03746 | 33227 ft | 395 kts | 217° |
| 2026-04-12 06:23 | 29.20925 | 77.01952 | 31628 ft | 414 kts | 216° |
| 2026-04-12 06:23 | 29.18256 | 77.00560 | 30378 ft | 429 kts | 216° |
| 2026-04-12 06:24 | 29.15494 | 76.99128 | 28918 ft | 443 kts | 215° |
| 2026-04-12 06:24 | 29.12642 | 76.97658 | 27291 ft | 456 kts | 213° |
| 2026-04-12 06:24 | 29.09708 | 76.96154 | 25604 ft | 468 kts | 212° |
| 2026-04-12 06:24 | 29.06706 | 76.94625 | 24118 ft | 475 kts | 211° |
| 2026-04-12 06:25 | 29.03711 | 76.93112 | 23324 ft | 465 kts | 210° |
| 2026-04-12 06:25 | 29.00783 | 76.91635 | 22476 ft | 456 kts | 211° |
| 2026-04-12 06:25 | 28.97903 | 76.90172 | 21578 ft | 450 kts | 211° |
| 2026-04-12 06:25 | 28.95064 | 76.88717 | 20720 ft | 445 kts | 211° |
| 2026-04-12 06:26 | 28.92250 | 76.87267 | 19892 ft | 442 kts | 211° |
| 2026-04-12 06:26 | 28.89377 | 76.86015 | 19108 ft | 448 kts | 199° |
| 2026-04-12 06:26 | 28.86229 | 76.85853 | 18386 ft | 463 kts | 178° |
| 2026-04-12 06:26 | 28.83128 | 76.86982 | 17592 ft | 476 kts | 156° |
| 2026-04-12 06:27 | 28.80819 | 76.88917 | 16963 ft | 481 kts | 137° |
| 2026-04-12 06:27 | 28.78875 | 76.92067 | 16273 ft | 481 kts | 115° |
| 2026-04-12 06:27 | 28.78007 | 76.95701 | 15644 ft | 473 kts | 93° |
| 2026-04-12 06:27 | 28.78274 | 76.99377 | 15052 ft | 461 kts | 72° |
| 2026-04-12 06:28 | 28.79232 | 77.02821 | 14440 ft | 453 kts | 69° |
| 2026-04-12 06:28 | 28.80210 | 77.06216 | 13866 ft | 447 kts | 69° |
| 2026-04-12 06:28 | 28.81173 | 77.09566 | 13277 ft | 441 kts | 69° |
| 2026-04-12 06:28 | 28.82071 | 77.12886 | 12636 ft | 437 kts | 75° |
| 2026-04-12 06:29 | 28.82384 | 77.16314 | 11995 ft | 434 kts | 88° |
| 2026-04-12 06:29 | 28.82414 | 77.19736 | 11354 ft | 428 kts | 88° |
| 2026-04-12 06:29 | 28.82443 | 77.23110 | 10711 ft | 423 kts | 88° |
| 2026-04-12 06:29 | 28.82454 | 77.26441 | 10083 ft | 417 kts | 91° |
| 2026-04-12 06:30 | 28.81883 | 77.29643 | 9396 ft | 412 kts | 112° |
| 2026-04-12 06:30 | 28.80428 | 77.32421 | 8686 ft | 406 kts | 126° |
| 2026-04-12 06:30 | 28.78776 | 77.35018 | 7907 ft | 403 kts | 127° |
| 2026-04-12 06:30 | 28.77119 | 77.37575 | 7158 ft | 399 kts | 127° |
| 2026-04-12 06:31 | 28.75470 | 77.40099 | 6405 ft | 395 kts | 127° |
| 2026-04-12 06:31 | 28.73838 | 77.42595 | 5653 ft | 391 kts | 127° |
| 2026-04-12 06:31 | 28.72259 | 77.45107 | 4370 ft | 397 kts | 124° |
| 2026-04-12 06:31 | 28.70661 | 77.47646 | 3740 ft | 386 kts | 127° |
| 2026-04-12 06:32 | 28.68830 | 77.49780 | 3264 ft | 370 kts | 148° |
| 2026-04-12 06:32 | 28.67288 | 77.50585 | 3116 ft | 353 kts | 166° |
| 2026-04-12 06:32 | 28.64221 | 77.50900 | 2954 ft | 319 kts | 188° |
| 2026-04-12 06:32 | 28.62151 | 77.50389 | 2961 ft | 292 kts | 202° |
| 2026-04-12 06:33 | 28.60931 | 77.49786 | 2969 ft | 275 kts | 211° |
| 2026-04-12 06:33 | 28.59427 | 77.48646 | 2969 ft | 252 kts | 223° |
| 2026-04-12 06:33 | 28.58241 | 77.47294 | 2975 ft | 232 kts | 234° |
| 2026-04-12 06:33 | 28.57370 | 77.45847 | 2974 ft | 213 kts | 244° |
| 2026-04-12 06:34 | 28.56781 | 77.44387 | 2977 ft | 195 kts | 253° |
| 2026-04-12 06:34 | 28.56423 | 77.42907 | 2978 ft | 194 kts | 263° |
| 2026-04-12 06:34 | 28.56280 | 77.41390 | 2981 ft | 193 kts | 271° |
| 2026-04-12 06:34 | 28.56309 | 77.39871 | 2981 ft | 193 kts | 274° |
| 2026-04-12 06:35 | 28.56357 | 77.37916 | 2987 ft | 191 kts | 273° |
| 2026-04-12 06:35 | 28.56384 | 77.36754 | 2985 ft | 192 kts | 274° |
| 2026-04-12 06:35 | 28.56420 | 77.35300 | 3025 ft | 175 kts | 274° |
| 2026-04-12 06:36 | 28.56452 | 77.33989 | 2997 ft | 161 kts | 274° |
| 2026-04-12 06:36 | 28.56482 | 77.32785 | 2999 ft | 143 kts | 274° |
| 2026-04-12 06:36 | 28.56511 | 77.31650 | 2993 ft | 146 kts | 274° |
| 2026-04-12 06:36 | 28.56540 | 77.30484 | 2992 ft | 145 kts | 274° |
| 2026-04-12 06:37 | 28.56568 | 77.29353 | 2996 ft | 144 kts | 275° |
| 2026-04-12 06:37 | 28.56596 | 77.28193 | 2998 ft | 146 kts | 275° |
| 2026-04-12 06:37 | 28.56625 | 77.27038 | 3004 ft | 147 kts | 274° |
| 2026-04-12 06:37 | 28.56653 | 77.25881 | 3000 ft | 145 kts | 274° |
| 2026-04-12 06:38 | 28.56680 | 77.24737 | 2918 ft | 144 kts | 274° |
| 2026-04-12 06:38 | 28.56708 | 77.23590 | 2778 ft | 146 kts | 274° |
| 2026-04-12 06:38 | 28.56735 | 77.22446 | 2634 ft | 142 kts | 274° |
| 2026-04-12 06:38 | 28.56762 | 77.21320 | 2449 ft | 142 kts | 275° |
| 2026-04-12 06:39 | 28.56789 | 77.20193 | 2267 ft | 143 kts | 275° |
| 2026-04-12 06:39 | 28.56816 | 77.19076 | 2083 ft | 141 kts | 273° |
| 2026-04-12 06:39 | 28.56842 | 77.17962 | 1899 ft | 141 kts | 276° |
| 2026-04-12 06:39 | 28.56868 | 77.16846 | 1724 ft | 142 kts | 275° |
| 2026-04-12 06:40 | 28.56894 | 77.15726 | 1535 ft | 141 kts | 275° |
| 2026-04-12 06:40 | 28.56921 | 77.14610 | 1352 ft | 142 kts | 273° |
| 2026-04-12 06:40 | 28.56948 | 77.13494 | 1104 ft | 141 kts | 272° |
| 2026-04-12 06:40 | 28.56970 | 77.12325 | 921 ft | 149 kts | 271° |
| 2026-04-12 06:41 | 28.56996 | 77.11165 | 799 ft | 143 kts | 272° |
| 2026-04-12 06:41 | 28.57019 | 77.10128 | 772 ft | 113 kts | 272° |
| 2026-04-12 06:41 | 28.57034 | 77.09525 | 775 ft | 26 kts | 276° |
| 2026-04-12 06:41 | 28.57009 | 77.09337 | 775 ft | 24 kts | 246° |
| 2026-04-12 06:42 | 28.56934 | 77.09164 | 774 ft | 24 kts | 240° |
| 2026-04-12 06:42 | 28.56864 | 77.09009 | 773 ft | 9 kts | 275° |
| 2026-04-12 06:42 | 28.56883 | 77.08995 | 773 ft | 5 kts | 342° |
| 2026-04-12 06:42 | 28.56923 | 77.08969 | 773 ft | 3 kts | 282° |
| 2026-04-12 06:43 | 28.56898 | 77.08872 | 773 ft | 18 kts | 266° |
| 2026-04-12 06:43 | 28.56854 | 77.08664 | 773 ft | 37 kts | 223° |
| 2026-04-12 06:43 | 28.56655 | 77.08440 | 772 ft | 40 kts | 233° |
| 2026-04-12 06:43 | 28.56525 | 77.08155 | 773 ft | 48 kts | 240° |
| 2026-04-12 06:44 | 28.56412 | 77.08002 | 773 ft | 17 kts | 183° |
| 2026-04-12 06:44 | 28.56321 | 77.08069 | 773 ft | 9 kts | 178° |
| 2026-04-12 06:44 | 28.56232 | 77.08058 | 773 ft | 20 kts | 187° |
| 2026-04-12 06:44 | 28.55995 | 77.07978 | 773 ft | 53 kts | 195° |
| 2026-04-12 06:45 | 28.55642 | 77.07871 | 773 ft | 51 kts | 194° |
| 2026-04-12 06:45 | 28.55327 | 77.07784 | 773 ft | 24 kts | 190° |
| 2026-04-12 06:45 | 28.55220 | 77.07764 | 773 ft | 15 kts | 195° |
| 2026-04-12 06:45 | 28.55105 | 77.07812 | 774 ft | 28 kts | 97° |
| 2026-04-12 06:46 | 28.55048 | 77.08116 | 774 ft | 58 kts | 104° |
| 2026-04-12 06:46 | 28.54881 | 77.08836 | 773 ft | 92 kts | 104° |
| 2026-04-12 06:46 | 28.54732 | 77.09480 | 774 ft | 80 kts | 104° |
| 2026-04-12 06:46 | 28.54653 | 77.09826 | 774 ft | 23 kts | 108° |